Time;durP1;ratioP1;P1;durP2;ratioP2;P2;SDS_P1;SDS_P2;PMS_P1;PMS_P2;Temp;Humidity;BMP_temperature;BMP_pressure;BME280_temperature;BME280_humidity;BME280_pressure;Samples;Min_cycle;Max_cycle;Signal;HPM_P1;HPM_P2
2022/04/03 04:22:36;;;;;;;28.05;13.82;;;;;;;0.26;100.00;100611.53;5129613;27;20165;-74
2022/04/03 04:25:02;;;;;;;30.88;15.43;;;;;;;0.33;100.00;100613.78;5129880;27;20042;-74
2022/04/03 04:27:28;;;;;;;28.77;14.25;;;;;;;0.32;100.00;100626.00;5129846;27;20040;-75
2022/04/03 04:29:53;;;;;;;25.52;14.38;;;;;;;0.34;100.00;100612.84;5129889;27;20431;-76
2022/04/03 04:32:21;;;;;;;25.48;14.70;;;;;;;0.37;100.00;100617.88;5128089;28;20023;-75
2022/04/03 04:34:51;;;;;;;27.67;14.00;;;;;;;0.39;100.00;100631.69;5128535;28;20102;-75
2022/04/03 04:37:17;;;;;;;20.25;12.82;;;;;;;0.40;100.00;100625.53;5128473;28;20126;-76
2022/04/03 04:39:43;;;;;;;24.23;12.70;;;;;;;0.42;100.00;100623.66;5128519;28;20051;-75
2022/04/03 04:44:43;;;;;;;21.52;12.75;;;;;;;0.43;100.00;100627.94;5098405;28;20059;-77
2022/04/03 04:47:09;;;;;;;21.45;12.25;;;;;;;0.44;100.00;100627.84;5117923;28;20032;-79
2022/04/03 04:49:35;;;;;;;27.60;13.18;;;;;;;0.43;100.00;100638.44;5098260;28;20032;-78
2022/04/03 04:52:01;;;;;;;25.98;14.23;;;;;;;0.48;100.00;100646.84;5096426;28;20039;-77
2022/04/03 04:54:27;;;;;;;23.33;12.93;;;;;;;0.46;100.00;100641.72;5093269;28;20028;-76
2022/04/03 04:56:53;;;;;;;21.67;12.65;;;;;;;0.48;100.00;100646.84;5090753;28;20550;-76
2022/04/03 04:59:19;;;;;;;23.08;12.93;;;;;;;0.52;100.00;100648.31;5093606;28;20044;-78
2022/04/03 05:01:45;;;;;;;22.42;12.27;;;;;;;0.47;100.00;100639.94;5096760;28;20039;-78
2022/04/03 05:04:11;;;;;;;22.70;13.15;;;;;;;0.46;100.00;100644.34;5097956;28;20036;-77
2022/04/03 05:06:37;;;;;;;20.83;11.90;;;;;;;0.49;100.00;100649.38;5099107;28;20044;-78
2022/04/03 05:09:06;;;;;;;21.17;13.48;;;;;;;0.53;100.00;100644.78;5095797;28;20035;-78
2022/04/03 05:11:33;;;;;;;21.00;12.75;;;;;;;0.50;100.00;100644.97;5097040;28;20063;-76
2022/04/03 05:13:59;;;;;;;22.70;12.57;;;;;;;0.45;100.00;100644.41;5094838;28;20032;-77
2022/04/03 05:16:26;;;;;;;21.05;12.73;;;;;;;0.44;100.00;100661.09;5092807;28;20036;-77
2022/04/03 05:18:54;;;;;;;26.25;13.85;;;;;;;0.43;100.00;100662.03;5087973;28;20067;-74
2022/04/03 05:21:22;;;;;;;20.77;12.82;;;;;;;0.50;100.00;100655.44;5087991;28;20048;-73
2022/04/03 05:23:49;;;;;;;23.13;13.13;;;;;;;0.57;100.00;100667.22;5087760;28;20400;-73
2022/04/03 05:26:16;;;;;;;24.63;13.20;;;;;;;0.56;100.00;100665.53;5088270;28;20054;-73
2022/04/03 05:28:42;;;;;;;20.60;11.93;;;;;;;0.61;100.00;100673.97;5088933;28;20157;-73
2022/04/03 05:31:08;;;;;;;22.80;13.80;;;;;;;0.62;100.00;100670.38;5087942;28;20052;-74
2022/04/03 05:33:35;;;;;;;22.83;12.77;;;;;;;0.66;100.00;100668.44;5075929;28;20036;-73
2022/04/03 05:36:00;;;;;;;24.00;13.48;;;;;;;0.66;100.00;100679.75;5074137;28;20494;-73
2022/04/03 05:38:26;;;;;;;23.35;14.05;;;;;;;0.62;100.00;100669.56;5073938;28;20116;-74
2022/04/03 05:40:52;;;;;;;25.08;12.68;;;;;;;0.63;100.00;100671.22;5072869;28;20032;-74
2022/04/03 05:43:17;;;;;;;22.00;12.00;;;;;;;0.66;100.00;100681.53;5073689;28;20036;-74
2022/04/03 05:45:43;;;;;;;24.80;13.48;;;;;;;0.73;100.00;100682.81;5074039;28;20370;-73
2022/04/03 05:48:09;;;;;;;21.77;11.90;;;;;;;0.73;100.00;100677.56;5072584;28;20493;-73
2022/04/03 05:50:37;;;;;;;19.73;11.95;;;;;;;0.70;100.00;100678.59;5073643;28;20109;-73
2022/04/03 05:53:03;;;;;;;;;;;;;;;0.73;100.00;100682.81;5072589;28;20481;-74
2022/04/03 05:55:29;;;;;;;21.67;12.23;;;;;;;0.73;100.00;100683.66;5073417;28;19920;-74
2022/04/03 05:57:54;;;;;;;20.98;13.07;;;;;;;0.77;100.00;100685.13;5073520;28;20458;-73
2022/04/03 06:00:22;;;;;;;20.45;11.77;;;;;;;0.77;100.00;100692.97;5072290;28;20564;-72
2022/04/03 06:02:49;;;;;;;22.35;12.35;;;;;;;0.82;100.00;100695.31;5071792;28;20028;-71
2022/04/03 06:05:17;;;;;;;21.60;12.20;;;;;;;0.84;100.00;100700.47;5073534;28;20432;-71
2022/04/03 06:07:43;;;;;;;17.63;11.00;;;;;;;0.82;100.00;100693.53;5073670;28;20036;-71
2022/04/03 06:10:10;;;;;;;17.95;10.90;;;;;;;0.87;100.00;100700.28;5072750;28;20072;-72
2022/04/03 06:12:36;;;;;;;16.05;10.23;;;;;;;0.80;100.00;100697.22;5073842;28;20060;-72
2022/04/03 06:15:01;;;;;;;19.77;11.73;;;;;;;0.90;100.00;100705.31;5073996;28;20037;-72
2022/04/03 06:17:27;;;;;;;16.83;10.82;;;;;;;0.93;100.00;100715.63;5073679;28;20489;-72
2022/04/03 06:19:53;;;;;;;17.48;10.30;;;;;;;0.93;98.84;100713.81;5073555;28;20067;-72
2022/04/03 06:22:18;;;;;;;14.88;9.70;;;;;;;0.94;97.59;100720.75;5073083;28;20028;-72
2022/04/03 06:24:44;;;;;;;18.08;10.23;;;;;;;1.04;98.10;100720.97;5073336;28;20116;-72
2022/04/03 06:27:10;;;;;;;16.88;9.93;;;;;;;1.07;97.69;100723.41;5073109;28;20036;-72
2022/04/03 06:29:35;;;;;;;16.45;9.65;;;;;;;1.03;97.28;100732.41;5071815;28;20028;-72
2022/04/03 06:32:01;;;;;;;16.73;10.05;;;;;;;1.06;97.76;100732.22;5072777;28;20037;-72
2022/04/03 06:34:26;;;;;;;16.63;10.13;;;;;;;1.09;96.97;100721.53;5073024;28;20040;-72
2022/04/03 06:36:53;;;;;;;14.55;8.93;;;;;;;1.17;97.41;100729.72;5071567;28;20043;-72
2022/04/03 06:39:19;;;;;;;14.50;9.02;;;;;;;1.01;98.27;100724.66;5072848;28;20404;-72
2022/04/03 06:41:45;;;;;;;14.35;9.13;;;;;;;1.24;97.90;100727.53;5072766;28;20032;-72
2022/04/03 06:44:10;;;;;;;14.13;8.68;;;;;;;1.33;96.74;100724.31;5072651;28;20040;-72
2022/04/03 06:46:36;;;;;;;14.20;8.25;;;;;;;1.41;95.75;100727.25;5068052;28;20040;-73
2022/04/03 06:49:02;;;;;;;14.95;9.00;;;;;;;1.57;96.56;100734.97;5051479;28;20036;-73
2022/04/03 06:51:27;;;;;;;18.90;8.75;;;;;;;1.64;95.51;100744.09;5050878;28;20041;-74
2022/04/03 06:53:53;;;;;;;14.75;8.73;;;;;;;1.68;93.71;100742.94;5051692;28;20409;-73
2022/04/03 06:56:19;;;;;;;16.90;9.55;;;;;;;1.80;97.61;100743.88;5052422;28;20047;-75
2022/04/03 06:58:45;;;;;;;17.92;9.93;;;;;;;1.84;94.38;100746.22;5052145;28;20551;-75
2022/04/03 07:01:11;;;;;;;17.45;10.32;;;;;;;2.06;97.36;100744.72;5052364;28;20033;-74
2022/04/03 07:03:36;;;;;;;21.50;10.98;;;;;;;2.28;94.95;100744.03;5051386;28;20078;-73
2022/04/03 07:06:02;;;;;;;13.57;8.35;;;;;;;2.34;91.17;100744.47;5050821;28;20478;-73
2022/04/03 07:08:28;;;;;;;14.63;8.63;;;;;;;2.56;91.29;100749.06;5052239;28;20120;-74
2022/04/03 07:10:55;;;;;;;14.25;8.57;;;;;;;2.68;89.11;100749.97;5052411;28;20068;-78
2022/04/03 07:13:20;;;;;;;15.55;8.95;;;;;;;2.73;87.07;100750.44;5034004;28;20450;-74
2022/04/03 07:15:48;;;;;;;11.93;7.45;;;;;;;2.84;86.14;100753.16;5052296;28;20075;-74
2022/04/03 07:18:15;;;;;;;15.43;8.75;;;;;;;2.85;90.17;100760.09;5051032;28;20033;-74
2022/04/03 07:20:41;;;;;;;11.02;8.07;;;;;;;3.14;83.14;100762.41;5050804;28;20489;-74
2022/04/03 07:23:06;;;;;;;13.63;7.80;;;;;;;3.14;83.73;100765.88;5050827;28;20047;-72
2022/04/03 07:25:32;;;;;;;12.40;8.40;;;;;;;3.35;86.06;100770.50;5052604;28;20036;-72
2022/04/03 07:27:58;;;;;;;12.60;8.07;;;;;;;3.31;88.13;100764.63;5051817;28;20127;-74
2022/04/03 07:30:23;;;;;;;13.18;7.70;;;;;;;3.44;82.98;100767.19;5051954;28;20048;-72
2022/04/03 07:32:49;;;;;;;11.68;6.70;;;;;;;3.70;77.48;100771.31;5049860;28;20040;-72
2022/04/03 07:35:15;;;;;;;8.75;5.75;;;;;;;3.72;75.89;100773.88;5050477;28;20051;-72
2022/04/03 07:37:40;;;;;;;8.77;5.03;;;;;;;3.75;73.95;100765.72;5050629;28;20052;-74
2022/04/03 07:40:07;;;;;;;8.35;5.00;;;;;;;3.91;73.34;100768.88;5050575;28;20047;-74
2022/04/03 07:42:34;;;;;;;8.02;5.53;;;;;;;3.72;75.17;100772.06;5050967;28;20078;-73
2022/04/03 07:44:59;;;;;;;9.02;5.65;;;;;;;3.95;73.21;100772.94;5052001;28;20516;-74
2022/04/03 07:47:25;;;;;;;7.35;5.35;;;;;;;3.99;71.96;100777.03;5052240;28;20041;-73
2022/04/03 07:49:51;;;;;;;10.32;5.80;;;;;;;4.03;74.95;100777.59;5050625;28;20057;-75
2022/04/03 07:52:17;;;;;;;12.70;5.80;;;;;;;4.13;76.91;100778.59;5050979;28;20482;-73
2022/04/03 07:54:42;;;;;;;7.45;4.75;;;;;;;4.32;70.51;100778.00;5051686;28;20119;-74
2022/04/03 07:57:10;;;;;;;9.73;4.28;;;;;;;4.24;68.79;100781.25;5052381;28;20048;-76
2022/04/03 07:59:36;;;;;;;8.25;4.75;;;;;;;4.12;70.48;100779.56;5054198;28;20505;-73
2022/04/03 08:02:02;;;;;;;8.10;4.95;;;;;;;4.14;70.17;100779.41;5051375;28;20040;-73
2022/04/03 08:04:28;;;;;;;7.72;5.10;;;;;;;4.06;71.95;100774.75;5051445;28;20025;-74
2022/04/03 08:06:54;;;;;;;9.05;4.95;;;;;;;4.16;68.26;100780.13;5051629;28;20025;-73
2022/04/03 08:09:20;;;;;;;7.10;5.13;;;;;;;4.26;68.69;100791.66;5051370;28;20520;-73
2022/04/03 08:11:46;;;;;;;7.93;5.03;;;;;;;4.23;70.81;100790.09;5050273;28;20067;-73
2022/04/03 08:14:12;;;;;;;25.63;14.52;;;;;;;4.50;69.24;100784.47;5050974;28;20114;-73
2022/04/03 08:16:37;;;;;;;9.00;5.57;;;;;;;4.39;66.64;100791.53;5033469;28;20045;-73
2022/04/03 08:19:03;;;;;;;8.10;5.10;;;;;;;4.36;65.32;100784.69;5049840;28;20295;-73
2022/04/03 08:21:30;;;;;;;10.40;6.07;;;;;;;4.40;67.88;100794.06;5032981;28;20033;-73
2022/04/03 08:23:56;;;;;;;9.05;5.13;;;;;;;4.41;69.93;100789.63;5049414;28;20081;-72
2022/04/03 08:26:26;;;;;;;10.07;5.50;;;;;;;4.62;68.43;100793.19;5051098;28;20037;-73
2022/04/03 08:28:54;;;;;;;8.35;5.40;;;;;;;4.28;66.04;100797.66;5050991;28;20123;-74
2022/04/03 08:31:24;;;;;;;8.10;5.32;;;;;;;4.08;67.58;100801.81;5050863;28;20021;-73
2022/04/03 08:33:50;;;;;;;7.60;4.88;;;;;;;4.13;66.61;100796.22;5032854;28;20386;-73
2022/04/03 08:36:16;;;;;;;9.10;5.32;;;;;;;4.28;64.94;100803.75;5051071;28;20094;-74
2022/04/03 08:38:42;;;;;;;7.07;5.22;;;;;;;4.09;66.28;100800.84;5049680;28;20029;-73
2022/04/03 08:41:09;;;;;;;9.68;5.18;;;;;;;4.30;65.32;100808.91;5049443;28;20033;-73
2022/04/03 08:43:34;;;;;;;8.80;5.15;;;;;;;4.28;65.22;100810.84;5050222;28;20489;-73
2022/04/03 08:46:01;;;;;;;11.73;5.45;;;;;;;4.02;65.72;100803.13;5049641;28;20090;-73
2022/04/03 08:48:32;;;;;;;7.07;5.07;;;;;;;4.22;66.39;100806.03;5060767;28;20474;-72
2022/04/03 08:51:01;;;;;;;7.70;5.30;;;;;;;4.36;65.75;100809.25;5071146;28;20406;-72
2022/04/03 08:53:30;;;;;;;8.45;5.30;;;;;;;4.26;64.73;100796.94;5070756;28;20037;-73
2022/04/03 08:55:56;;;;;;;9.02;5.30;;;;;;;4.47;64.98;100802.31;5070985;28;20432;-72
2022/04/03 08:58:21;;;;;;;8.65;4.97;;;;;;;4.98;68.40;100804.44;5070960;28;20037;-72
2022/04/03 09:00:47;;;;;;;9.38;5.00;;;;;;;5.48;65.89;100808.22;5069716;28;20072;-73
2022/04/03 09:03:13;;;;;;;8.90;5.40;;;;;;;5.93;60.47;100800.06;5070464;28;20024;-72
2022/04/03 09:05:41;;;;;;;10.05;6.90;;;;;;;6.32;61.32;100808.22;5070948;28;20037;-73
2022/04/03 09:08:08;;;;;;;8.25;5.03;;;;;;;6.75;57.66;100805.31;5072310;28;20032;-73
2022/04/03 09:10:35;;;;;;;6.60;4.68;;;;;;;6.84;54.97;100807.16;5074802;28;20388;-73
2022/04/03 09:13:01;;;;;;;7.97;4.30;;;;;;;6.63;54.27;100796.66;5074636;28;20111;-73
2022/04/03 09:15:29;;;;;;;6.95;4.32;;;;;;;7.00;54.05;100799.53;5075150;28;20397;-73
2022/04/03 09:17:59;;;;;;;7.75;4.53;;;;;;;6.61;53.53;100795.94;5073300;28;20107;-72
2022/04/03 09:20:30;;;;;;;7.75;4.43;;;;;;;6.73;54.53;100800.19;5074595;28;20040;-72
2022/04/03 09:23:04;;;;;;;7.18;4.55;;;;;;;6.16;56.28;100817.47;5074122;28;20111;-73
2022/04/03 09:25:43;;;;;;;7.63;4.50;;;;;;;5.94;57.32;100812.34;5074399;28;20028;-74
2022/04/03 09:28:14;;;;;;;9.40;5.15;;;;;;;5.73;58.41;100807.00;5073108;28;20035;-72
2022/04/03 09:30:43;;;;;;;9.90;5.32;;;;;;;5.42;57.03;100812.22;5074408;28;20109;-73
2022/04/03 09:33:11;;;;;;;9.27;5.45;;;;;;;5.43;57.61;100813.03;5074159;28;20036;-72
2022/04/03 09:35:53;;;;;;;10.48;4.93;;;;;;;5.10;58.92;100822.75;5074257;28;20025;-72
2022/04/03 09:38:19;;;;;;;7.03;5.15;;;;;;;4.80;59.70;100823.41;5074151;28;20116;-72
2022/04/03 09:40:47;;;;;;;9.93;5.47;;;;;;;4.80;58.66;100822.56;5074258;28;20027;-74
2022/04/03 09:43:24;;;;;;;8.88;5.55;;;;;;;4.80;58.38;100827.84;5072341;28;20040;-73
2022/04/03 09:46:11;;;;;;;9.65;4.95;;;;;;;4.85;56.66;100821.25;5074269;28;20032;-73
2022/04/03 09:48:44;;;;;;;8.10;5.60;;;;;;;4.64;57.20;100828.22;5073230;28;20357;-73
2022/04/03 09:51:22;;;;;;;7.95;4.90;;;;;;;4.31;60.21;100827.28;5074228;28;20073;-72
2022/04/03 09:54:01;;;;;;;9.90;5.78;;;;;;;4.32;59.85;100831.59;5073792;28;20047;-73
2022/04/03 09:56:31;;;;;;;9.07;5.30;;;;;;;4.30;58.25;100836.16;5072729;28;20044;-73
2022/04/03 09:58:59;;;;;;;10.65;5.63;;;;;;;4.22;58.52;100833.25;5074075;28;20047;-73
2022/04/03 10:01:27;;;;;;;11.38;5.47;;;;;;;4.28;59.81;100834.56;5073784;28;20109;-73
2022/04/03 10:03:53;;;;;;;11.50;5.45;;;;;;;4.17;59.87;100832.75;5073532;28;20047;-73
2022/04/03 10:06:21;;;;;;;9.40;5.63;;;;;;;3.51;63.63;100837.72;5072445;28;20047;-72
2022/04/03 10:08:48;;;;;;;10.35;5.65;;;;;;;3.63;66.69;100843.88;5072539;28;20036;-73
2022/04/03 10:11:15;;;;;;;9.35;5.63;;;;;;;3.60;65.41;100851.19;5073781;28;20044;-73
2022/04/03 10:13:42;;;;;;;10.93;5.63;;;;;;;3.42;69.37;100841.03;5073581;28;20068;-72
2022/04/03 10:16:10;;;;;;;11.95;5.65;;;;;;;3.26;69.41;100837.88;5073762;28;20119;-72
2022/04/03 10:18:36;;;;;;;9.38;5.20;;;;;;;3.22;70.92;100846.94;5072623;28;20511;-72
2022/04/03 10:21:04;;;;;;;10.90;5.30;;;;;;;3.41;69.66;100843.78;5057297;28;20104;-72
2022/04/03 10:23:31;;;;;;;9.55;6.15;;;;;;;3.42;66.09;100835.78;5076934;28;20048;-73
2022/04/03 10:25:58;;;;;;;13.13;6.13;;;;;;;3.39;66.13;100835.16;5090560;28;20048;-72
2022/04/03 10:28:25;;;;;;;13.25;6.10;;;;;;;3.47;65.93;100841.56;5073520;28;20128;-72
2022/04/03 10:31:07;;;;;;;12.38;5.60;;;;;;;3.50;66.00;100841.31;5074135;28;20162;-72
2022/04/03 10:33:42;;;;;;;12.75;6.97;;;;;;;3.45;67.81;100839.97;5074893;28;20090;-73
2022/04/03 10:36:13;;;;;;;15.57;8.40;;;;;;;3.38;68.40;100844.84;5073447;28;20115;-73
2022/04/03 10:38:57;;;;;;;11.85;7.03;;;;;;;3.34;68.23;100848.69;5072280;28;20025;-73
2022/04/03 10:41:31;;;;;;;12.63;7.03;;;;;;;3.25;67.36;100849.31;5072161;28;20028;-73
2022/04/03 10:44:22;;;;;;;12.25;6.75;;;;;;;3.36;66.09;100843.28;5073740;28;20041;-74
2022/04/03 10:47:03;;;;;;;19.95;7.53;;;;;;;3.36;67.93;100838.03;5074053;28;20039;-74
2022/04/03 10:49:46;;;;;;;12.80;6.50;;;;;;;3.36;66.45;100836.22;5072138;28;20102;-74
2022/04/03 10:52:17;;;;;;;12.48;6.60;;;;;;;3.34;65.86;100843.41;5072987;28;20028;-74
2022/04/03 10:54:52;;;;;;;11.35;6.90;;;;;;;3.28;66.32;100833.31;5073269;28;20036;-74
2022/04/03 10:57:41;;;;;;;12.23;6.78;;;;;;;3.37;67.02;100844.97;5073451;28;20041;-74
2022/04/03 11:00:12;;;;;;;13.13;6.90;;;;;;;3.40;64.60;100839.50;5073085;28;20036;-74
2022/04/03 11:02:39;;;;;;;14.90;6.28;;;;;;;3.35;65.12;100836.34;5071606;28;20032;-74
2022/04/03 11:05:25;;;;;;;14.20;7.45;;;;;;;3.48;66.06;100842.38;5074265;28;20056;-75
2022/04/03 11:08:10;;;;;;;15.18;6.47;;;;;;;3.61;67.55;100842.31;5065865;28;20048;-74
2022/04/03 11:10:49;;;;;;;11.70;6.97;;;;;;;3.64;68.36;100839.44;5065676;28;20106;-74
2022/04/03 11:13:30;;;;;;;16.35;8.07;;;;;;;3.67;69.02;100833.97;5055298;28;20040;-75
2022/04/03 11:15:57;;;;;;;16.52;6.95;;;;;;;3.58;66.33;100838.09;5071155;28;20229;-74
2022/04/03 11:18:35;;;;;;;14.40;7.47;;;;;;;3.74;69.88;100841.28;5071285;28;20036;-74
2022/04/03 11:21:16;;;;;;;12.40;7.57;;;;;;;3.88;68.54;100845.53;5072161;28;20115;-73
2022/04/03 11:24:15;;;;;;;13.82;6.70;;;;;;;3.96;66.56;100840.50;5070533;28;20165;-74
2022/04/03 11:26:41;;;;;;;10.40;6.80;;;;;;;3.74;66.70;100848.34;5068359;28;20080;-74
2022/04/03 11:29:09;;;;;;;15.23;7.88;;;;;;;3.70;66.84;100842.47;5072027;28;20493;-74
2022/04/03 11:31:38;;;;;;;12.63;7.05;;;;;;;3.56;69.71;100840.03;5069929;28;20512;-73
2022/04/03 11:34:06;;;;;;;13.45;6.78;;;;;;;3.66;65.65;100833.13;5071186;28;20489;-74
2022/04/03 11:36:33;;;;;;;14.88;6.97;;;;;;;3.92;66.52;100836.44;5071648;28;20424;-73
2022/04/03 11:39:00;;;;;;;13.55;7.15;;;;;;;3.73;64.76;100836.97;5073033;28;20044;-73
2022/04/03 11:41:32;;;;;;;15.35;6.68;;;;;;;3.97;64.56;100829.00;5070462;28;20035;-73
2022/04/03 11:44:05;;;;;;;12.55;7.32;;;;;;;3.97;62.58;100829.00;5071092;28;20044;-73
2022/04/03 11:46:38;;;;;;;13.27;6.53;;;;;;;3.69;61.76;100810.97;5071448;28;20110;-74
2022/04/03 11:49:18;;;;;;;15.10;7.25;;;;;;;4.05;61.08;100817.91;5068940;28;20401;-74
2022/04/03 11:51:45;;;;;;;12.40;7.57;;;;;;;4.21;61.79;100820.19;5068148;28;20036;-74
2022/04/03 11:54:14;;;;;;;14.75;7.35;;;;;;;4.34;59.17;100813.00;5071080;28;20396;-73
2022/04/03 11:56:40;;;;;;;13.77;6.38;;;;;;;4.12;60.57;100807.72;5071411;28;20111;-73
2022/04/03 11:59:09;;;;;;;14.25;6.80;;;;;;;4.49;60.24;100814.41;5069847;28;20446;-74
2022/04/03 12:01:34;;;;;;;11.95;6.95;;;;;;;4.71;56.49;100813.59;5071210;28;20416;-74
2022/04/03 12:04:08;;;;;;;11.65;6.15;;;;;;;4.75;56.60;100809.72;5070823;28;20133;-74
2022/04/03 12:06:39;;;;;;;17.55;7.03;;;;;;;4.86;54.38;100816.81;5070994;28;20051;-73
2022/04/03 12:09:08;;;;;;;11.32;5.80;;;;;;;4.96;55.00;100815.13;5068932;28;20028;-74
2022/04/03 12:11:40;;;;;;;12.25;6.20;;;;;;;4.82;53.04;100805.63;5070961;28;20043;-74
2022/04/03 12:14:08;;;;;;;9.20;6.03;;;;;;;5.09;52.61;100812.31;5068892;28;20032;-74
2022/04/03 12:16:38;;;;;;;12.13;6.32;;;;;;;4.91;52.61;100806.72;5071088;28;20020;-74
2022/04/03 12:19:23;;;;;;;13.05;6.60;;;;;;;5.04;56.45;100804.75;5069764;28;20036;-73
2022/04/03 12:21:57;;;;;;;12.93;6.63;;;;;;;5.21;53.95;100805.19;5069010;28;20032;-74
2022/04/03 12:24:25;;;;;;;9.93;5.70;;;;;;;5.22;53.32;100798.97;5068314;28;20070;-73
2022/04/03 12:27:00;;;;;;;14.40;7.90;;;;;;;5.10;55.18;100804.28;5069883;28;20416;-74
2022/04/03 12:29:28;;;;;;;14.60;7.47;;;;;;;5.03;56.01;100797.81;5068727;28;20044;-73
2022/04/03 12:32:00;;;;;;;12.50;7.40;;;;;;;4.93;58.95;100802.16;5069821;28;20047;-73
2022/04/03 12:34:27;;;;;;;15.63;7.65;;;;;;;4.96;60.60;100799.28;5068860;28;20032;-73
2022/04/03 12:36:55;;;;;;;12.70;7.70;;;;;;;5.31;55.36;100792.91;5071214;28;20103;-73
2022/04/03 12:39:46;;;;;;;16.80;8.02;;;;;;;5.34;59.10;100790.84;5071303;28;20032;-73
2022/04/03 12:42:22;;;;;;;18.83;7.20;;;;;;;5.67;57.21;100791.66;5069635;28;20024;-73
2022/04/03 12:44:54;;;;;;;17.40;7.32;;;;;;;5.83;52.70;100797.34;5073312;28;20086;-73
2022/04/03 12:47:43;;;;;;;17.83;8.77;;;;;;;5.64;52.81;100794.56;5073685;28;20043;-73
2022/04/03 12:50:21;;;;;;;20.05;6.97;;;;;;;5.23;52.85;100790.06;5073421;28;20040;-72
2022/04/03 12:52:47;;;;;;;13.45;6.68;;;;;;;5.83;53.63;100796.50;5072864;28;20078;-72
2022/04/03 12:55:22;;;;;;;13.40;7.53;;;;;;;5.92;56.70;100793.94;5074834;28;20021;-73
2022/04/03 13:00:45;;;;;;;15.43;7.03;;;;;;;5.44;52.01;100786.50;5074529;28;20108;-73
2022/04/03 13:03:39;;;;;;;12.82;7.30;;;;;;;5.81;50.33;100793.16;5072987;28;20028;-74
2022/04/03 13:06:14;;;;;;;11.02;6.32;;;;;;;5.32;54.36;100786.66;5072202;28;20032;-74
2022/04/03 13:08:48;;;;;;;10.80;6.85;;;;;;;5.89;51.57;100782.78;5073192;28;20051;-74
2022/04/03 13:11:53;;;;;;;14.02;6.60;;;;;;;5.93;50.53;100784.19;5073145;28;20039;-74
2022/04/03 13:14:37;;;;;;;12.70;6.72;;;;;;;6.31;52.69;100780.91;5073961;28;20523;-73
2022/04/03 13:17:06;;;;;;;13.63;6.82;;;;;;;6.69;50.95;100771.44;5071678;28;20056;-75
2022/04/03 13:19:35;;;;;;;;;;;;;;;7.00;51.55;100766.91;5074640;28;20386;-74
2022/04/03 13:22:01;;;;;;;;;;;;;;;6.82;49.63;100768.56;5074427;28;19912;-73
2022/04/03 13:24:27;;;;;;;;;;;;;;;7.17;48.19;100762.72;5074379;28;19943;-73
2022/04/03 13:26:54;;;;;;;;;;;;;;;6.84;51.67;100767.44;5074845;28;20395;-72
2022/04/03 13:29:20;;;;;;;;;;;;;;;6.76;52.77;100778.72;5074698;28;19912;-74
2022/04/03 13:31:46;;;;;;;;;;;;;;;6.55;51.22;100774.47;5072978;28;19985;-74
2022/04/03 13:34:11;;;;;;;;;;;;;;;7.01;51.96;100763.28;5073646;28;19975;-73
2022/04/03 13:36:36;;;;;;;;;;;;;;;7.04;52.12;100760.34;5074995;28;20365;-73
2022/04/03 13:39:07;;;;;;;;;;;;;;;7.45;49.03;100761.91;5054547;28;20344;-73
2022/04/03 13:41:37;;;;;;;;;;;;;;;7.75;48.69;100758.22;5072921;28;19912;-75
2022/04/03 13:44:03;;;;;;;;;;;;;;;7.65;50.03;100749.47;5074196;28;20345;-73
2022/04/03 13:46:29;;;;;;;;;;;;;;;7.39;49.44;100756.34;5074511;28;19918;-73
2022/04/03 13:48:54;;;;;;;;;;;;;;;7.53;45.83;100754.09;5074687;28;19912;-74
2022/04/03 13:51:20;;;;;;;;;;;;;;;7.63;47.50;100746.13;5074419;28;20035;-73
2022/04/03 13:53:48;;;;;;;;;;;;;;;7.37;46.63;100755.63;5073616;28;19935;-73
2022/04/03 13:56:14;;;;;;;;;;;;;;;7.40;46.75;100753.53;5074316;28;19920;-73
2022/04/03 13:58:40;;;;;;;;;;;;;;;6.71;46.31;100751.78;5074251;28;19923;-73
2022/04/03 14:01:07;;;;;;;;;;;;;;;7.12;46.04;100743.78;5074686;28;19965;-73
2022/04/03 14:03:33;;;;;;;;;;;;;;;6.61;47.27;100740.38;5072781;28;19919;-73
2022/04/03 14:05:59;;;;;;;;;;;;;;;6.71;47.63;100743.84;5074194;28;19958;-73
2022/04/03 14:08:26;;;;;;;;;;;;;;;6.77;48.79;100743.31;5074651;28;19999;-73
2022/04/03 14:10:52;;;;;;;;;;;;;;;6.39;49.66;100733.47;5074137;28;19921;-73
2022/04/03 14:13:23;;;;;;;;;;;;;;;6.55;47.89;100737.41;5074183;28;19917;-73
2022/04/03 14:15:50;;;;;;;;;;;;;;;6.42;46.40;100740.31;5074721;28;19999;-73
2022/04/03 14:18:16;;;;;;;;;;;;;;;6.53;47.77;100737.56;5074042;28;19908;-73
2022/04/03 14:20:42;;;;;;;;;;;;;;;6.27;46.41;100739.84;5074009;28;19912;-72
2022/04/03 14:23:07;;;;;;;;;;;;;;;6.15;46.83;100748.84;5073511;28;19923;-73
2022/04/03 14:25:33;;;;;;;;;;;;;;;6.21;46.13;100749.16;5074006;28;19916;-74
2022/04/03 14:27:59;;;;;;;;;;;;;;;6.18;48.06;100748.56;5072297;28;19923;-74
2022/04/03 14:30:25;;;;;;;;;;;;;;;5.90;47.21;100739.50;5073879;28;19912;-73
2022/04/03 14:32:51;;;;;;;;;;;;;;;5.86;47.20;100746.00;5072117;28;19921;-74
2022/04/03 14:35:17;;;;;;;;;;;;;;;5.91;49.43;100736.75;5073549;28;19917;-74
2022/04/03 14:37:43;;;;;;;;;;;;;;;6.09;50.37;100738.78;5073490;28;19952;-74
2022/04/03 14:40:10;;;;;;;;;;;;;;;6.21;50.01;100741.22;5073746;28;19919;-73
2022/04/03 14:42:35;;;;;;;;;;;;;;;6.17;48.06;100747.72;5073677;28;20392;-73
2022/04/03 14:45:01;;;;;;;;;;;;;;;6.18;47.04;100744.09;5074757;28;19913;-74
2022/04/03 14:47:27;;;;;;;;;;;;;;;5.99;49.90;100747.50;5073198;28;20239;-74
2022/04/03 14:49:52;;;;;;;;;;;;;;;5.98;47.52;100751.13;5072665;28;19920;-74
2022/04/03 14:52:18;;;;;;;;;;;;;;;5.78;48.25;100740.53;5071769;28;20039;-74
2022/04/03 14:54:43;;;;;;;;;;;;;;;5.80;48.31;100743.88;5072164;28;20010;-73
2022/04/03 14:57:10;;;;;;;;;;;;;;;5.46;47.83;100746.72;5073113;28;20499;-73
2022/04/03 14:59:35;;;;;;;;;;;;;;;5.52;48.38;100746.22;5072987;28;20023;-74
2022/04/03 15:02:01;;;;;;;;;;;;;;;5.46;48.39;100746.72;5072720;28;19999;-74
2022/04/03 15:04:27;;;;;;;;;;;;;;;5.29;49.25;100739.38;5071611;28;19916;-74
2022/04/03 15:06:53;;;;;;;;;;;;;;;5.28;49.54;100748.25;5072530;28;19916;-73
2022/04/03 15:09:31;;;;;;;;;;;;;;;5.33;48.38;100744.25;5073097;28;19965;-73
2022/04/03 15:12:00;;;;;;;;;;;;;;;5.33;48.13;100741.63;5072739;28;19925;-73
2022/04/03 15:14:26;;;;;;;;;;;;;;;5.05;49.93;100740.44;5071244;28;20788;-73
2022/04/03 15:16:51;;;;;;;;;;;;;;;5.12;50.21;100749.53;5073226;28;19958;-73
2022/04/03 15:19:17;;;;;;;;;;;;;;;5.07;51.48;100746.41;5071547;28;19916;-73
2022/04/03 15:21:43;;;;;;;;;;;;;;;4.96;49.86;100746.47;5071927;28;19917;-73
2022/04/03 15:24:08;;;;;;;;;;;;;;;5.14;50.40;100750.22;5071069;28;20336;-73
2022/04/03 15:26:34;;;;;;;;;;;;;;;5.17;49.77;100741.22;5072500;28;20381;-73
2022/04/03 15:28:59;;;;;;;;;;;;;;;5.24;47.91;100742.41;5070931;28;20007;-74
2022/04/03 15:31:25;;;;;;;;;;;;;;;5.31;48.47;100734.78;5071829;28;19952;-74
2022/04/03 15:33:51;;;;;;;;;;;;;;;5.30;47.46;100741.88;5071566;28;19923;-74
2022/04/03 15:36:17;;;;;;;;;;;;;;;5.30;46.89;100739.25;5072298;28;19928;-74
2022/04/03 15:38:42;;;;;;;;;;;;;;;5.33;49.08;100738.13;5072167;28;20002;-74
2022/04/03 15:41:08;;;;;;;;;;;;;;;5.29;51.42;100744.66;5072570;28;19954;-73
2022/04/03 15:43:34;;;;;;;;;;;;;;;5.27;51.62;100741.28;5069915;28;20005;-73
2022/04/03 15:46:00;;;;;;;;;;;;;;;5.20;51.50;100734.84;5071129;28;19912;-73
2022/04/03 15:48:25;;;;;;;;;;;;;;;5.16;54.25;100736.91;5072371;28;19920;-73
2022/04/03 15:50:51;;;;;;;;;;;;;;;4.99;56.57;100735.66;5072002;28;19966;-73
2022/04/03 15:53:16;;;;;;;;;;;;;;;5.00;56.91;100737.31;5069601;28;19939;-73
2022/04/03 15:55:42;;;;;;;;;;;;;;;4.89;58.27;100729.44;5072039;28;19916;-73
2022/04/03 15:58:07;;;;;;;;;;;;;;;4.73;58.54;100744.84;5072125;28;20030;-73
2022/04/03 16:00:33;;;;;;;;;;;;;;;4.68;57.85;100741.72;5070753;28;19966;-73
2022/04/03 16:02:58;;;;;;;;;;;;;;;4.51;57.56;100740.44;5071137;28;19912;-72
2022/04/03 16:05:24;;;;;;;;;;;;;;;4.54;58.27;100748.09;5071855;28;19944;-73
2022/04/03 16:07:49;;;;;;;;;;;;;;;4.61;56.43;100742.22;5071854;28;20000;-72
2022/04/03 16:10:27;;;;;;;;;;;;;;;4.56;57.65;100740.91;5070419;28;19966;-73
2022/04/03 16:12:57;;;;;;;;;;;;;;;4.59;59.16;100748.59;5070856;28;19928;-72
2022/04/03 16:15:23;;;;;;;;;;;;;;;4.60;57.88;100743.19;5071734;28;20019;-73
2022/04/03 16:17:49;;;;;;;;;;;;;;;4.63;58.48;100742.94;5071594;28;20003;-72